Cleveland, Ohio
Current Conditions -  °F | °C
As of 9:53 PM on Sunday 23 Nov 2014 (Local Time) from KBKL Reporting Station
Light Rain Light Rain  
Wind Chill: 12°   Ceiling: 8500
Heat Index: 12°   Visibility: 7mi
Dew Point:   Wind: 16mph
Humidity: 80%   Direction: 130°SE
Pressure: 29.45"   Gusts: 33mph
Location:  41.5°N, 81.69°W
Report Text: KBKL 240253Z 13014G29KT 7SM -RA SCT065 OVC085 12/09 A2945 RMK AO2 PK WND 13030/0234 PRESFR SLP973 P0003 60004 T01220089 58051
Loading
Personal Weather Stations






























Interactive Weather Map New forecast layout! Learn more

10-Day Weather Forecast

Advertisements
Track Severe Weather on mobile